NKS269 KTPA-KFLL
Flight info
| Callsign | NKS269 |
|---|---|
| Flight time | 0h 37m |
| Altitude | 23000 |
| Route | GANDY8 SABEE TEEKY4 |
| Aircraft | A320/M-SDE3FGHIRWY/LB1 |
Departure
| Time | 2026-05-03 21:28 |
|---|---|
| Airport | Tampa International Airport (KTPA) |
Arrival
| Time | 2026-05-03 22:05 |
|---|---|
| Airport | Fort Lauderdale Hollywood International Airport (KFLL) |
| Time | Latitude | Longitude | Altitude | Speed | Heading |
|---|---|---|---|---|---|
| 2026-05-03 21:01 | 27.97611 | -82.53163 | 43 ft | 0 kts | 269° |
| 2026-05-03 21:18 | 27.97611 | -82.53162 | 43 ft | 2 kts | 269° |
| 2026-05-03 21:18 | 27.97612 | -82.53134 | 43 ft | 4 kts | 268° |
| 2026-05-03 21:18 | 27.97613 | -82.53104 | 43 ft | 4 kts | 257° |
| 2026-05-03 21:18 | 27.97623 | -82.53077 | 43 ft | 4 kts | 225° |
| 2026-05-03 21:19 | 27.97641 | -82.53065 | 43 ft | 1 kts | 182° |
| 2026-05-03 21:19 | 27.97646 | -82.53065 | 43 ft | 0 kts | 182° |
| 2026-05-03 21:23 | 27.97634 | -82.53066 | 38 ft | 4 kts | 182° |
| 2026-05-03 21:23 | 27.97599 | -82.53066 | 42 ft | 6 kts | 185° |
| 2026-05-03 21:23 | 27.97551 | -82.53070 | 43 ft | 8 kts | 184° |
| 2026-05-03 21:23 | 27.97492 | -82.53073 | 43 ft | 9 kts | 182° |
| 2026-05-03 21:24 | 27.97425 | -82.53075 | 43 ft | 9 kts | 180° |
| 2026-05-03 21:24 | 27.97353 | -82.53074 | 42 ft | 11 kts | 176° |
| 2026-05-03 21:24 | 27.97288 | -82.53045 | 42 ft | 9 kts | 153° |
| 2026-05-03 21:24 | 27.97228 | -82.53012 | 41 ft | 10 kts | 161° |
| 2026-05-03 21:25 | 27.97148 | -82.53003 | 39 ft | 13 kts | 180° |
| 2026-05-03 21:25 | 27.97042 | -82.53007 | 36 ft | 17 kts | 182° |
| 2026-05-03 21:25 | 27.96929 | -82.53011 | 40 ft | 16 kts | 182° |
| 2026-05-03 21:25 | 27.96816 | -82.53015 | 41 ft | 17 kts | 181° |
| 2026-05-03 21:26 | 27.96707 | -82.53019 | 41 ft | 15 kts | 185° |
| 2026-05-03 21:26 | 27.96615 | -82.53021 | 41 ft | 12 kts | 181° |
| 2026-05-03 21:26 | 27.96527 | -82.53023 | 41 ft | 13 kts | 181° |
| 2026-05-03 21:26 | 27.96448 | -82.52971 | 39 ft | 16 kts | 110° |
| 2026-05-03 21:27 | 27.96516 | -82.52897 | 37 ft | 17 kts | 2° |
| 2026-05-03 21:27 | 27.96670 | -82.52891 | 37 ft | 45 kts | 2° |
| 2026-05-03 21:27 | 27.97273 | -82.52870 | 39 ft | 124 kts | 2° |
| 2026-05-03 21:27 | 27.98276 | -82.52833 | 311 ft | 152 kts | 3° |
| 2026-05-03 21:28 | 27.99292 | -82.52824 | 1201 ft | 144 kts | 1° |
| 2026-05-03 21:28 | 28.00288 | -82.52879 | 1719 ft | 148 kts | 359° |
| 2026-05-03 21:28 | 28.01385 | -82.52953 | 1959 ft | 168 kts | 360° |
| 2026-05-03 21:28 | 28.02612 | -82.53042 | 2198 ft | 184 kts | 360° |
| 2026-05-03 21:29 | 28.03895 | -82.52896 | 2556 ft | 195 kts | 12° |
| 2026-05-03 21:29 | 28.05268 | -82.52585 | 2899 ft | 210 kts | 14° |
| 2026-05-03 21:29 | 28.06764 | -82.52226 | 3195 ft | 230 kts | 13° |
| 2026-05-03 21:29 | 28.08398 | -82.51814 | 3595 ft | 251 kts | 17° |
| 2026-05-03 21:30 | 28.09928 | -82.50834 | 4261 ft | 259 kts | 45° |
| 2026-05-03 21:30 | 28.10876 | -82.49092 | 5046 ft | 265 kts | 71° |
| 2026-05-03 21:30 | 28.11055 | -82.47020 | 5722 ft | 276 kts | 98° |
| 2026-05-03 21:30 | 28.10452 | -82.44926 | 6407 ft | 285 kts | 118° |
| 2026-05-03 21:31 | 28.09223 | -82.43157 | 7115 ft | 288 kts | 143° |
| 2026-05-03 21:31 | 28.07470 | -82.42094 | 7847 ft | 287 kts | 169° |
| 2026-05-03 21:31 | 28.05504 | -82.41953 | 8620 ft | 283 kts | 194° |
| 2026-05-03 21:31 | 28.03677 | -82.42682 | 9449 ft | 278 kts | 210° |
| 2026-05-03 21:32 | 28.01941 | -82.43644 | 10262 ft | 279 kts | 211° |
| 2026-05-03 21:32 | 28.00132 | -82.44656 | 10532 ft | 301 kts | 211° |
| 2026-05-03 21:32 | 27.98188 | -82.45744 | 10684 ft | 324 kts | 210° |
| 2026-05-03 21:32 | 27.96116 | -82.46892 | 11056 ft | 336 kts | 210° |
| 2026-05-03 21:33 | 27.94027 | -82.48034 | 11672 ft | 340 kts | 209° |
| 2026-05-03 21:33 | 27.91892 | -82.49196 | 11916 ft | 341 kts | 209° |
| 2026-05-03 21:33 | 27.89755 | -82.50355 | 11982 ft | 340 kts | 209° |
| 2026-05-03 21:33 | 27.87626 | -82.51510 | 11988 ft | 340 kts | 209° |
| 2026-05-03 21:34 | 27.85497 | -82.52666 | 11981 ft | 340 kts | 209° |
| 2026-05-03 21:34 | 27.83370 | -82.53825 | 11989 ft | 340 kts | 209° |
| 2026-05-03 21:34 | 27.81236 | -82.54979 | 11992 ft | 341 kts | 207° |
| 2026-05-03 21:34 | 27.78969 | -82.55813 | 12069 ft | 348 kts | 195° |
| 2026-05-03 21:35 | 27.76541 | -82.56098 | 12766 ft | 354 kts | 184° |
| 2026-05-03 21:35 | 27.74063 | -82.55833 | 13464 ft | 362 kts | 173° |
| 2026-05-03 21:35 | 27.71634 | -82.54975 | 14114 ft | 370 kts | 162° |
| 2026-05-03 21:35 | 27.69279 | -82.53860 | 14656 ft | 374 kts | 162° |
| 2026-05-03 21:36 | 27.66876 | -82.52718 | 15190 ft | 377 kts | 163° |
| 2026-05-03 21:36 | 27.64443 | -82.51558 | 15712 ft | 381 kts | 163° |
| 2026-05-03 21:36 | 27.61991 | -82.50387 | 16216 ft | 385 kts | 163° |
| 2026-05-03 21:36 | 27.59510 | -82.49211 | 16742 ft | 389 kts | 163° |
| 2026-05-03 21:37 | 27.57006 | -82.48012 | 17265 ft | 394 kts | 161° |
| 2026-05-03 21:37 | 27.54552 | -82.46573 | 17788 ft | 400 kts | 159° |
| 2026-05-03 21:37 | 27.52086 | -82.45091 | 18300 ft | 404 kts | 159° |
| 2026-05-03 21:37 | 27.49623 | -82.43607 | 18744 ft | 408 kts | 159° |
| 2026-05-03 21:38 | 27.47114 | -82.42095 | 19225 ft | 411 kts | 159° |
| 2026-05-03 21:38 | 27.44578 | -82.40568 | 19736 ft | 414 kts | 159° |
| 2026-05-03 21:38 | 27.42025 | -82.39036 | 20221 ft | 417 kts | 159° |
| 2026-05-03 21:38 | 27.39474 | -82.37508 | 20705 ft | 420 kts | 159° |
| 2026-05-03 21:39 | 27.36888 | -82.35959 | 21167 ft | 423 kts | 160° |
| 2026-05-03 21:39 | 27.34285 | -82.34402 | 21632 ft | 425 kts | 160° |
| 2026-05-03 21:39 | 27.31666 | -82.32832 | 22080 ft | 428 kts | 160° |
| 2026-05-03 21:39 | 27.29036 | -82.31254 | 22519 ft | 430 kts | 160° |
| 2026-05-03 21:40 | 27.26387 | -82.29665 | 22927 ft | 432 kts | 160° |
| 2026-05-03 21:40 | 27.23733 | -82.28074 | 23031 ft | 434 kts | 160° |
| 2026-05-03 21:40 | 27.21032 | -82.26465 | 23065 ft | 444 kts | 160° |
| 2026-05-03 21:40 | 27.18289 | -82.24838 | 23061 ft | 448 kts | 160° |
| 2026-05-03 21:41 | 27.15561 | -82.23217 | 23061 ft | 449 kts | 160° |
| 2026-05-03 21:41 | 27.12802 | -82.21570 | 23060 ft | 450 kts | 159° |
| 2026-05-03 21:41 | 27.10016 | -82.19994 | 23057 ft | 445 kts | 165° |
| 2026-05-03 21:41 | 27.07121 | -82.18882 | 23062 ft | 436 kts | 173° |
| 2026-05-03 21:42 | 27.04171 | -82.18236 | 23074 ft | 431 kts | 178° |
| 2026-05-03 21:42 | 27.01220 | -82.17672 | 23069 ft | 431 kts | 178° |
| 2026-05-03 21:42 | 26.98262 | -82.17106 | 23070 ft | 431 kts | 178° |
| 2026-05-03 21:42 | 26.95305 | -82.16540 | 23046 ft | 431 kts | 177° |
| 2026-05-03 21:43 | 26.92355 | -82.15971 | 23046 ft | 431 kts | 177° |
| 2026-05-03 21:43 | 26.89398 | -82.15399 | 23049 ft | 431 kts | 177° |
| 2026-05-03 21:43 | 26.86449 | -82.14827 | 23052 ft | 431 kts | 177° |
| 2026-05-03 21:43 | 26.83534 | -82.14241 | 23053 ft | 433 kts | 174° |
| 2026-05-03 21:44 | 26.80644 | -82.13145 | 23052 ft | 446 kts | 162° |
| 2026-05-03 21:44 | 26.77976 | -82.11294 | 23053 ft | 459 kts | 148° |
| 2026-05-03 21:44 | 26.75701 | -82.08728 | 23051 ft | 472 kts | 134° |
| 2026-05-03 21:44 | 26.73996 | -82.05547 | 23050 ft | 484 kts | 118° |
| 2026-05-03 21:45 | 26.72917 | -82.01956 | 23051 ft | 489 kts | 111° |
| 2026-05-03 21:45 | 26.71951 | -81.98308 | 23053 ft | 489 kts | 111° |
| 2026-05-03 21:45 | 26.70982 | -81.94666 | 23052 ft | 489 kts | 111° |
| 2026-05-03 21:45 | 26.70008 | -81.91026 | 23060 ft | 488 kts | 111° |
| 2026-05-03 21:46 | 26.69043 | -81.87441 | 23066 ft | 488 kts | 111° |
| 2026-05-03 21:46 | 26.68047 | -81.83764 | 23074 ft | 487 kts | 111° |
| 2026-05-03 21:46 | 26.67077 | -81.80191 | 23064 ft | 487 kts | 111° |
| 2026-05-03 21:46 | 26.66098 | -81.76587 | 23048 ft | 487 kts | 111° |
| 2026-05-03 21:47 | 26.65114 | -81.72955 | 22592 ft | 483 kts | 111° |
| 2026-05-03 21:47 | 26.64143 | -81.69369 | 22336 ft | 481 kts | 112° |
| 2026-05-03 21:47 | 26.62904 | -81.65908 | 22084 ft | 478 kts | 122° |
| 2026-05-03 21:47 | 26.61229 | -81.62747 | 21791 ft | 468 kts | 131° |
| 2026-05-03 21:48 | 26.59294 | -81.59845 | 21425 ft | 465 kts | 133° |
| 2026-05-03 21:48 | 26.57359 | -81.56970 | 20860 ft | 460 kts | 133° |
| 2026-05-03 21:48 | 26.55444 | -81.54128 | 20363 ft | 457 kts | 133° |
| 2026-05-03 21:48 | 26.53536 | -81.51302 | 19851 ft | 454 kts | 133° |
| 2026-05-03 21:49 | 26.51646 | -81.48503 | 19363 ft | 450 kts | 132° |
| 2026-05-03 21:49 | 26.49791 | -81.45755 | 18854 ft | 447 kts | 132° |
| 2026-05-03 21:49 | 26.47928 | -81.42990 | 18339 ft | 444 kts | 132° |
| 2026-05-03 21:49 | 26.46076 | -81.40244 | 17779 ft | 441 kts | 132° |
| 2026-05-03 21:50 | 26.44236 | -81.37520 | 17240 ft | 438 kts | 132° |
| 2026-05-03 21:50 | 26.42405 | -81.34813 | 16706 ft | 437 kts | 132° |
| 2026-05-03 21:50 | 26.40564 | -81.32120 | 16323 ft | 432 kts | 133° |
| 2026-05-03 21:50 | 26.38706 | -81.29528 | 16002 ft | 425 kts | 134° |
| 2026-05-03 21:51 | 26.36822 | -81.27012 | 15609 ft | 421 kts | 135° |
| 2026-05-03 21:51 | 26.34930 | -81.24538 | 15108 ft | 417 kts | 135° |
| 2026-05-03 21:51 | 26.33052 | -81.22089 | 14559 ft | 414 kts | 135° |
| 2026-05-03 21:51 | 26.31192 | -81.19653 | 14010 ft | 411 kts | 134° |
| 2026-05-03 21:52 | 26.29384 | -81.17262 | 13437 ft | 407 kts | 134° |
| 2026-05-03 21:52 | 26.27579 | -81.14860 | 12919 ft | 401 kts | 134° |
| 2026-05-03 21:52 | 26.25826 | -81.12526 | 12781 ft | 384 kts | 134° |
| 2026-05-03 21:52 | 26.24148 | -81.10301 | 12649 ft | 365 kts | 134° |
| 2026-05-03 21:53 | 26.22559 | -81.08206 | 12520 ft | 346 kts | 135° |
| 2026-05-03 21:53 | 26.21029 | -81.06198 | 12394 ft | 334 kts | 135° |
| 2026-05-03 21:53 | 26.19540 | -81.04249 | 12248 ft | 326 kts | 135° |
| 2026-05-03 21:53 | 26.18067 | -81.02326 | 11657 ft | 332 kts | 135° |
| 2026-05-03 21:54 | 26.16577 | -81.00382 | 11423 ft | 325 kts | 134° |
| 2026-05-03 21:54 | 26.15267 | -80.98352 | 11221 ft | 322 kts | 122° |
| 2026-05-03 21:54 | 26.14398 | -80.96030 | 10615 ft | 334 kts | 107° |
| 2026-05-03 21:54 | 26.13941 | -80.93486 | 9773 ft | 343 kts | 102° |
| 2026-05-03 21:55 | 26.13518 | -80.90860 | 9306 ft | 331 kts | 102° |
| 2026-05-03 21:55 | 26.13129 | -80.88447 | 9020 ft | 315 kts | 102° |
| 2026-05-03 21:55 | 26.12739 | -80.86053 | 8795 ft | 313 kts | 101° |
| 2026-05-03 21:55 | 26.12349 | -80.83699 | 8666 ft | 305 kts | 103° |
| 2026-05-03 21:56 | 26.11962 | -80.81365 | 7951 ft | 311 kts | 102° |
| 2026-05-03 21:56 | 26.11563 | -80.78976 | 7196 ft | 314 kts | 102° |
| 2026-05-03 21:56 | 26.11176 | -80.76664 | 7069 ft | 295 kts | 101° |
| 2026-05-03 21:56 | 26.10807 | -80.74459 | 6940 ft | 284 kts | 103° |
| 2026-05-03 21:57 | 26.10458 | -80.72365 | 6777 ft | 268 kts | 102° |
| 2026-05-03 21:57 | 26.10128 | -80.70386 | 6460 ft | 262 kts | 102° |
| 2026-05-03 21:57 | 26.09794 | -80.68411 | 6183 ft | 258 kts | 103° |
| 2026-05-03 21:57 | 26.09467 | -80.66469 | 5995 ft | 251 kts | 102° |
| 2026-05-03 21:58 | 26.09149 | -80.64586 | 5782 ft | 246 kts | 102° |
| 2026-05-03 21:58 | 26.08835 | -80.62728 | 5492 ft | 244 kts | 102° |
| 2026-05-03 21:58 | 26.08522 | -80.60883 | 5187 ft | 242 kts | 102° |
| 2026-05-03 21:58 | 26.08211 | -80.59051 | 5035 ft | 241 kts | 101° |
| 2026-05-03 21:59 | 26.07905 | -80.57214 | 5020 ft | 242 kts | 101° |
| 2026-05-03 21:59 | 26.07592 | -80.55374 | 5011 ft | 242 kts | 102° |
| 2026-05-03 21:59 | 26.07281 | -80.53557 | 5008 ft | 242 kts | 102° |
| 2026-05-03 21:59 | 26.06927 | -80.51726 | 5013 ft | 244 kts | 102° |
| 2026-05-03 22:00 | 26.06743 | -80.49851 | 4999 ft | 245 kts | 94° |
| 2026-05-03 22:00 | 26.06720 | -80.47931 | 4546 ft | 254 kts | 90° |
| 2026-05-03 22:00 | 26.06726 | -80.45893 | 4090 ft | 269 kts | 90° |
| 2026-05-03 22:00 | 26.06722 | -80.43834 | 3988 ft | 263 kts | 90° |
| 2026-05-03 22:01 | 26.06716 | -80.41842 | 3994 ft | 252 kts | 90° |
| 2026-05-03 22:01 | 26.06706 | -80.39908 | 4006 ft | 250 kts | 91° |
| 2026-05-03 22:01 | 26.06692 | -80.37938 | 3792 ft | 262 kts | 91° |
| 2026-05-03 22:01 | 26.06687 | -80.35854 | 3438 ft | 275 kts | 90° |
| 2026-05-03 22:02 | 26.06679 | -80.33722 | 3066 ft | 274 kts | 90° |
| 2026-05-03 22:02 | 26.06670 | -80.31676 | 2726 ft | 253 kts | 90° |
| 2026-05-03 22:02 | 26.06661 | -80.29819 | 2422 ft | 235 kts | 90° |
| 2026-05-03 22:02 | 26.06652 | -80.28064 | 2125 ft | 220 kts | 90° |
| 2026-05-03 22:03 | 26.06644 | -80.26413 | 1846 ft | 208 kts | 89° |
| 2026-05-03 22:03 | 26.06637 | -80.24847 | 1624 ft | 197 kts | 89° |
| 2026-05-03 22:03 | 26.06629 | -80.23363 | 1332 ft | 186 kts | 89° |
| 2026-05-03 22:03 | 26.06621 | -80.21972 | 1121 ft | 171 kts | 88° |
| 2026-05-03 22:04 | 26.06614 | -80.20707 | 879 ft | 156 kts | 88° |
| 2026-05-03 22:04 | 26.06607 | -80.19536 | 691 ft | 147 kts | 87° |
| 2026-05-03 22:04 | 26.06602 | -80.18401 | 508 ft | 147 kts | 88° |
| 2026-05-03 22:04 | 26.06596 | -80.17285 | 318 ft | 146 kts | 89° |
| 2026-05-03 22:05 | 26.06589 | -80.16150 | 134 ft | 147 kts | 86° |
| 2026-05-03 22:05 | 26.06590 | -80.15026 | 26 ft | 137 kts | 89° |
| 2026-05-03 22:05 | 26.06582 | -80.14164 | 20 ft | 86 kts | 90° |
| 2026-05-03 22:05 | 26.06584 | -80.13699 | 25 ft | 44 kts | 91° |
| 2026-05-03 22:06 | 26.06676 | -80.13572 | 27 ft | 21 kts | 358° |
| 2026-05-03 22:06 | 26.06739 | -80.13668 | 27 ft | 17 kts | 271° |
| 2026-05-03 22:06 | 26.06741 | -80.13807 | 26 ft | 18 kts | 271° |
| 2026-05-03 22:06 | 26.06741 | -80.13922 | 26 ft | 12 kts | 270° |
| 2026-05-03 22:07 | 26.06720 | -80.14026 | 22 ft | 16 kts | 248° |
| 2026-05-03 22:07 | 26.06689 | -80.14162 | 19 ft | 20 kts | 268° |
| 2026-05-03 22:07 | 26.06690 | -80.14314 | 19 ft | 20 kts | 270° |
| 2026-05-03 22:07 | 26.06692 | -80.14472 | 17 ft | 22 kts | 271° |
| 2026-05-03 22:08 | 26.06694 | -80.14647 | 17 ft | 22 kts | 270° |
| 2026-05-03 22:08 | 26.06694 | -80.14780 | 19 ft | 10 kts | 270° |
| 2026-05-03 22:08 | 26.06694 | -80.14861 | 21 ft | 11 kts | 270° |
| 2026-05-03 22:08 | 26.06695 | -80.14948 | 22 ft | 12 kts | 270° |
| 2026-05-03 22:09 | 26.06695 | -80.15046 | 23 ft | 13 kts | 270° |
| 2026-05-03 22:09 | 26.06733 | -80.15135 | 24 ft | 12 kts | 324° |
| 2026-05-03 22:09 | 26.06790 | -80.15149 | 24 ft | 8 kts | 18° |
| 2026-05-03 22:10 | 26.06929 | -80.15132 | 24 ft | 12 kts | 2° |
| 2026-05-03 22:10 | 26.07021 | -80.15127 | 24 ft | 14 kts | 10° |
| 2026-05-03 22:10 | 26.07109 | -80.15060 | 24 ft | 17 kts | 44° |
| 2026-05-03 22:10 | 26.07155 | -80.14949 | 21 ft | 17 kts | 111° |
| 2026-05-03 22:11 | 26.07115 | -80.14860 | 21 ft | 11 kts | 118° |
| 2026-05-03 22:11 | 26.07157 | -80.14817 | 21 ft | 9 kts | 38° |